createdAt,value
2023-03-17T00:02:01.165Z,7.05
2023-03-17T00:04:02.664Z,7.09
2023-03-17T00:06:05.420Z,7.04
2023-03-17T00:08:24.210Z,7.16
2023-03-17T00:10:26.812Z,7.18
2023-03-17T00:12:28.275Z,7.17
2023-03-17T00:14:29.745Z,7.15
2023-03-17T00:16:36.206Z,7.15
2023-03-17T00:18:37.708Z,7.19
2023-03-17T00:20:39.461Z,7.27
2023-03-17T00:22:40.977Z,7.25
2023-03-17T00:24:42.612Z,7.28
2023-03-17T00:26:44.365Z,7.32
2023-03-17T00:28:45.816Z,7.40
2023-03-17T00:30:48.073Z,7.39
2023-03-17T00:32:51.826Z,7.39
2023-03-17T00:34:53.425Z,7.42
2023-03-17T00:36:56.006Z,7.48
2023-03-17T00:38:58.348Z,7.45
2023-03-17T00:41:00.069Z,7.48
2023-03-17T00:43:02.706Z,7.64
2023-03-17T00:45:04.460Z,7.65
2023-03-17T00:47:06.156Z,7.60
2023-03-17T00:49:20.177Z,7.65
2023-03-17T00:51:23.267Z,7.65
2023-03-17T00:53:24.645Z,7.55
2023-03-17T00:55:29.350Z,7.53
2023-03-17T00:57:30.744Z,7.50
2023-03-17T00:59:42.081Z,7.49
2023-03-17T01:01:43.523Z,7.57
2023-03-17T01:03:45.772Z,7.60
2023-03-17T01:05:48.267Z,7.60
2023-03-17T01:07:53.036Z,7.65
2023-03-17T01:09:54.896Z,7.64
2023-03-17T01:11:56.390Z,7.70
2023-03-17T01:13:57.770Z,7.66
2023-03-17T01:15:59.242Z,7.61
2023-03-17T01:18:01.657Z,7.73
2023-03-17T01:20:05.370Z,7.59
2023-03-17T01:22:07.796Z,7.55
2023-03-17T01:24:09.695Z,7.46
2023-03-17T01:26:11.668Z,7.53
2023-03-17T01:28:14.913Z,7.54
2023-03-17T01:30:24.695Z,7.45
2023-03-17T01:32:26.987Z,7.42
2023-03-17T01:34:28.787Z,7.41
2023-03-17T01:36:30.197Z,7.42
2023-03-17T01:38:32.475Z,7.44
2023-03-17T01:40:42.517Z,7.45
2023-03-17T01:42:48.322Z,7.47
2023-03-17T01:45:01.761Z,7.46
2023-03-17T01:47:06.402Z,7.48
2023-03-17T01:49:37.406Z,7.43
2023-03-17T01:52:00.854Z,7.40
2023-03-17T01:54:06.698Z,7.37
2023-03-17T01:56:08.414Z,7.42
2023-03-17T01:58:09.810Z,7.49
2023-03-17T02:00:20.553Z,7.49
2023-03-17T02:02:30.792Z,7.54
2023-03-17T02:04:34.003Z,7.35
2023-03-17T02:06:37.033Z,7.38
2023-03-17T02:08:41.530Z,7.36
2023-03-17T02:10:45.058Z,7.28
2023-03-17T02:12:50.945Z,7.21
2023-03-17T02:14:52.852Z,7.15
2023-03-17T02:16:54.308Z,7.12
2023-03-17T02:18:56.063Z,7.08
2023-03-17T02:20:57.576Z,7.10
2023-03-17T02:23:00.344Z,7.09
2023-03-17T02:25:02.130Z,7.06
2023-03-17T02:27:35.443Z,7.04
2023-03-17T02:29:37.737Z,6.98
2023-03-17T02:31:39.629Z,6.97
2023-03-17T02:33:42.304Z,6.94
2023-03-17T02:35:43.678Z,6.93
2023-03-17T02:37:46.587Z,6.98
2023-03-17T02:39:48.009Z,6.94
2023-03-17T02:41:49.469Z,6.93
2023-03-17T02:43:52.038Z,6.88
2023-03-17T02:45:53.612Z,6.86
2023-03-17T02:47:55.963Z,6.83
2023-03-17T02:49:57.421Z,6.88
2023-03-17T02:51:59.029Z,6.85
2023-03-17T02:54:00.976Z,6.92
2023-03-17T02:56:02.517Z,6.89
2023-03-17T02:58:04.236Z,6.87
2023-03-17T03:00:06.253Z,6.91
2023-03-17T03:02:07.715Z,6.82
2023-03-17T03:04:10.033Z,6.83
2023-03-17T03:06:11.417Z,6.74
2023-03-17T03:08:12.812Z,6.74
2023-03-17T03:10:14.461Z,6.76
2023-03-17T03:12:16.177Z,6.77
2023-03-17T03:14:17.631Z,6.69
2023-03-17T03:16:19.151Z,6.70
2023-03-17T03:18:20.675Z,6.60
2023-03-17T03:20:22.075Z,6.60
2023-03-17T03:22:23.532Z,6.56
2023-03-17T03:24:24.961Z,6.49
2023-03-17T03:26:27.212Z,6.45
2023-03-17T03:28:28.589Z,6.40
2023-03-17T03:30:30.231Z,6.39
2023-03-17T03:32:31.815Z,6.33
2023-03-17T03:34:33.254Z,6.28
2023-03-17T03:36:34.677Z,6.24
2023-03-17T03:38:36.081Z,6.21
2023-03-17T03:40:37.671Z,6.20
2023-03-17T03:42:39.159Z,6.13
2023-03-17T03:44:40.773Z,6.14
2023-03-17T03:46:42.267Z,6.05
2023-03-17T03:48:43.700Z,6.06
2023-03-17T03:50:45.189Z,6.03
2023-03-17T03:52:46.654Z,6.00
2023-03-17T03:54:48.099Z,5.91
2023-03-17T03:56:49.516Z,5.91
2023-03-17T03:58:51.237Z,5.86
2023-03-17T04:00:52.648Z,5.96
2023-03-17T04:02:54.138Z,5.88
2023-03-17T04:04:55.636Z,5.91
2023-03-17T04:06:57.111Z,5.86
2023-03-17T04:08:58.579Z,5.82
2023-03-17T04:11:00.265Z,5.75
2023-03-17T04:13:01.844Z,5.86
2023-03-17T04:15:04.020Z,6.06
2023-03-17T04:17:05.443Z,6.02
2023-03-17T04:19:07.273Z,6.05
2023-03-17T04:21:08.880Z,5.97
2023-03-17T04:23:10.649Z,5.93
2023-03-17T04:25:14.513Z,6.02
2023-03-17T04:27:16.982Z,6.04
2023-03-17T04:29:19.052Z,6.04
2023-03-17T04:31:21.101Z,5.99
2023-03-17T04:33:22.763Z,5.91
2023-03-17T04:35:24.138Z,5.90
2023-03-17T04:37:25.979Z,5.80
2023-03-17T04:39:27.537Z,6.07
2023-03-17T04:41:28.912Z,6.00
2023-03-17T04:43:30.307Z,5.98
2023-03-17T04:45:32.314Z,5.89
2023-03-17T04:47:34.136Z,5.88
2023-03-17T04:49:35.689Z,5.89
2023-03-17T04:51:37.103Z,5.88
2023-03-17T04:53:38.581Z,5.82
2023-03-17T04:55:40.234Z,5.80
2023-03-17T04:57:41.655Z,5.83
2023-03-17T04:59:43.155Z,5.80
2023-03-17T05:01:44.553Z,5.76
2023-03-17T05:03:45.946Z,5.69
2023-03-17T05:05:47.462Z,5.62
2023-03-17T05:07:48.871Z,5.61
2023-03-17T05:09:50.243Z,5.62
2023-03-17T05:11:52.095Z,5.73
2023-03-17T05:13:53.565Z,5.70
2023-03-17T05:15:56.184Z,5.73
2023-03-17T05:17:57.614Z,5.65
2023-03-17T05:19:59.000Z,5.64
2023-03-17T05:22:00.455Z,5.57
2023-03-17T05:24:01.829Z,5.70
2023-03-17T05:26:03.268Z,5.71
2023-03-17T05:28:04.741Z,5.67
2023-03-17T05:30:06.631Z,5.62
2023-03-17T05:32:08.077Z,5.73
2023-03-17T05:34:09.780Z,5.62
2023-03-17T05:36:11.168Z,5.67
2023-03-17T05:38:13.729Z,5.69
2023-03-17T05:40:15.345Z,5.68
2023-03-17T05:42:16.795Z,5.83
2023-03-17T05:44:18.199Z,5.89
2023-03-17T05:46:20.498Z,5.85
2023-03-17T05:48:22.761Z,5.80
2023-03-17T05:50:24.892Z,5.90
2023-03-17T05:52:27.022Z,5.92
2023-03-17T05:54:28.500Z,5.86
2023-03-17T05:56:33.417Z,5.94
2023-03-17T05:58:35.454Z,6.05
2023-03-17T06:00:37.694Z,6.02
2023-03-17T06:02:39.666Z,6.11
2023-03-17T06:04:41.876Z,6.17
2023-03-17T06:06:43.668Z,6.39
2023-03-17T06:08:45.678Z,6.37
2023-03-17T06:10:47.274Z,6.30
2023-03-17T06:12:48.737Z,6.44
2023-03-17T06:14:50.275Z,6.55
2023-03-17T06:16:51.660Z,6.53
2023-03-17T06:18:53.099Z,6.60
2023-03-17T06:20:54.609Z,6.59
2023-03-17T06:23:04.526Z,6.60
2023-03-17T06:25:07.071Z,6.75
2023-03-17T06:27:10.839Z,6.77
2023-03-17T06:29:12.538Z,6.84
2023-03-17T06:31:14.001Z,6.87
2023-03-17T06:33:15.916Z,6.94
2023-03-17T06:35:18.017Z,7.04
2023-03-17T06:37:20.142Z,7.04
2023-03-17T06:39:21.874Z,7.18
2023-03-17T06:41:23.336Z,7.24
2023-03-17T06:43:25.054Z,7.27
2023-03-17T06:45:27.132Z,7.29
2023-03-17T06:47:28.506Z,7.44
2023-03-17T06:49:29.923Z,7.51
2023-03-17T06:51:32.438Z,7.56
2023-03-17T06:53:33.876Z,7.63
2023-03-17T06:55:35.638Z,7.71
2023-03-17T06:57:37.338Z,7.73
2023-03-17T06:59:39.002Z,7.87
2023-03-17T07:01:40.629Z,7.89
2023-03-17T07:03:42.149Z,7.97
2023-03-17T07:05:43.551Z,8.04
2023-03-17T07:07:45.924Z,8.10
2023-03-17T07:09:47.816Z,8.12
2023-03-17T07:11:49.589Z,8.22
2023-03-17T07:13:50.990Z,8.29
2023-03-17T07:15:55.231Z,8.34
2023-03-17T07:17:56.828Z,8.45
2023-03-17T07:19:58.202Z,8.51
2023-03-17T07:21:59.634Z,8.61
2023-03-17T07:24:01.581Z,8.67
2023-03-17T07:26:03.777Z,8.72
2023-03-17T07:28:05.182Z,8.83
2023-03-17T07:30:07.416Z,8.90
2023-03-17T07:32:09.623Z,8.97
2023-03-17T07:34:11.209Z,9.06
2023-03-17T07:36:13.114Z,9.13
2023-03-17T07:38:16.826Z,9.23
2023-03-17T07:40:18.596Z,9.31
2023-03-17T07:42:20.186Z,9.38
2023-03-17T07:44:23.123Z,9.46
2023-03-17T07:46:24.636Z,9.53
2023-03-17T07:48:26.105Z,9.59
2023-03-17T07:50:27.535Z,9.69
2023-03-17T07:52:29.007Z,9.78
2023-03-17T07:54:30.474Z,9.85
2023-03-17T07:56:32.606Z,9.93
2023-03-17T07:58:34.933Z,9.99
2023-03-17T08:00:36.541Z,10.12
2023-03-17T08:02:38.218Z,10.18
2023-03-17T08:04:39.720Z,10.28
2023-03-17T08:06:42.247Z,10.35
2023-03-17T08:08:43.718Z,10.46
2023-03-17T08:10:45.369Z,10.57
2023-03-17T08:12:51.658Z,10.65
2023-03-17T08:14:53.449Z,10.72
2023-03-17T08:16:55.635Z,10.85
2023-03-17T08:18:58.781Z,10.88
2023-03-17T08:21:00.195Z,10.96
2023-03-17T08:23:02.001Z,10.95
2023-03-17T08:25:03.747Z,10.97
2023-03-17T08:27:05.365Z,10.97
2023-03-17T08:29:08.036Z,10.98
2023-03-17T08:31:13.397Z,11.02
2023-03-17T08:33:15.143Z,11.06
2023-03-17T08:35:18.493Z,11.05
2023-03-17T08:37:20.682Z,11.11
2023-03-17T08:39:22.141Z,11.16
2023-03-17T08:41:25.303Z,11.27
2023-03-17T08:43:28.072Z,11.30
2023-03-17T08:45:29.887Z,11.30
2023-03-17T08:47:31.598Z,11.38
2023-03-17T08:49:34.878Z,11.48
2023-03-17T08:51:37.857Z,11.47
2023-03-17T08:53:40.255Z,11.52
2023-03-17T08:55:42.265Z,11.57
2023-03-17T08:57:44.587Z,11.63
2023-03-17T08:59:47.362Z,11.59
2023-03-17T09:01:48.784Z,11.61
2023-03-17T09:03:51.650Z,11.67
2023-03-17T09:05:53.528Z,11.64
2023-03-17T09:07:54.985Z,11.66
2023-03-17T09:09:57.061Z,11.65
2023-03-17T09:11:58.617Z,11.70
2023-03-17T09:14:00.202Z,11.75
2023-03-17T09:16:02.587Z,11.85
2023-03-17T09:18:04.594Z,11.92
2023-03-17T09:20:06.541Z,12.05
2023-03-17T09:22:07.983Z,12.08
2023-03-17T09:24:10.007Z,12.19
2023-03-17T09:26:12.487Z,12.28
2023-03-17T09:28:13.870Z,12.45
2023-03-17T09:30:16.414Z,12.58
2023-03-17T09:32:17.828Z,12.66
2023-03-17T09:34:19.219Z,12.75
2023-03-17T09:36:20.677Z,12.81
2023-03-17T09:38:22.753Z,12.99
2023-03-17T09:40:32.848Z,13.01
2023-03-17T09:42:47.676Z,13.09
2023-03-17T09:45:33.775Z,13.31
2023-03-17T09:47:59.955Z,13.28
2023-03-17T09:50:04.659Z,13.35
2023-03-17T09:52:15.029Z,13.35
2023-03-17T09:54:25.888Z,13.34
2023-03-17T09:56:30.950Z,13.34
2023-03-17T09:58:34.111Z,13.46
2023-03-17T10:00:35.644Z,13.51
2023-03-17T10:02:37.864Z,13.45
2023-03-17T10:04:42.243Z,13.38
2023-03-17T10:06:46.732Z,13.45
2023-03-17T10:08:55.400Z,13.48
2023-03-17T10:11:16.232Z,13.57
2023-03-17T10:13:23.842Z,13.63
2023-03-17T10:15:38.366Z,13.64
2023-03-17T10:17:42.025Z,13.72
2023-03-17T10:20:08.391Z,13.72
2023-03-17T10:22:25.236Z,13.89
2023-03-17T10:24:29.608Z,14.01
2023-03-17T10:26:42.556Z,14.14
2023-03-17T10:28:44.231Z,14.18
2023-03-17T10:30:45.893Z,14.37
2023-03-17T10:32:48.615Z,14.42
2023-03-17T10:34:50.171Z,14.68
2023-03-17T10:37:05.533Z,14.82
2023-03-17T10:39:08.128Z,14.89
2023-03-17T10:41:14.664Z,14.97
2023-03-17T10:43:20.456Z,15.15
2023-03-17T10:45:31.359Z,15.20
2023-03-17T10:47:38.178Z,15.29
2023-03-17T10:49:39.681Z,15.38
2023-03-17T10:51:46.341Z,15.46
2023-03-17T10:53:52.901Z,15.64
2023-03-17T10:55:58.767Z,15.88
2023-03-17T10:58:26.750Z,16.00
2023-03-17T11:00:33.720Z,16.21
2023-03-17T11:02:42.928Z,16.37
2023-03-17T11:04:44.322Z,16.39
2023-03-17T11:06:51.055Z,16.58
2023-03-17T11:08:54.730Z,16.64
2023-03-17T11:10:56.868Z,16.61
2023-03-17T11:13:02.565Z,16.65
2023-03-17T11:15:10.126Z,16.85
2023-03-17T11:17:21.071Z,16.87
2023-03-17T11:19:45.999Z,17.12
2023-03-17T11:21:57.102Z,17.16
2023-03-17T11:24:13.576Z,16.98
2023-03-17T11:26:24.203Z,16.88
2023-03-17T11:28:35.109Z,16.83
2023-03-17T11:31:02.362Z,16.89
2023-03-17T11:33:34.006Z,16.87
2023-03-17T11:35:41.612Z,17.03
2023-03-17T11:38:07.950Z,17.18
2023-03-17T11:40:21.680Z,17.04
2023-03-17T11:42:43.370Z,17.04
2023-03-17T11:44:50.747Z,16.95
2023-03-17T11:47:09.077Z,17.06
2023-03-17T11:49:32.549Z,17.29
2023-03-17T11:51:52.600Z,17.32
2023-03-17T11:53:57.384Z,17.34
2023-03-17T11:56:26.413Z,17.46
2023-03-17T11:58:35.584Z,17.50
2023-03-17T12:00:43.850Z,17.65
2023-03-17T12:03:14.829Z,17.76
2023-03-17T12:05:22.995Z,17.82
2023-03-17T12:07:28.883Z,17.89
2023-03-17T12:09:37.164Z,17.94
2023-03-17T12:11:41.591Z,17.73
2023-03-17T12:13:49.614Z,17.95
2023-03-17T12:16:11.246Z,18.02
2023-03-17T12:18:18.676Z,17.90
2023-03-17T12:20:37.793Z,17.89
2023-03-17T12:22:55.927Z,17.93
2023-03-17T12:25:00.967Z,17.97
2023-03-17T12:27:33.889Z,17.91
2023-03-17T12:29:43.658Z,17.88
2023-03-17T12:31:55.975Z,18.01
2023-03-17T12:33:57.656Z,17.99
2023-03-17T12:36:01.317Z,18.17
2023-03-17T12:38:20.646Z,18.28
2023-03-17T12:41:01.916Z,18.34
2023-03-17T12:43:38.974Z,18.36
2023-03-17T12:45:49.258Z,18.32
2023-03-17T12:47:53.604Z,18.38
2023-03-17T12:50:19.100Z,18.22
2023-03-17T12:52:28.189Z,18.29
2023-03-17T12:54:33.213Z,18.41
2023-03-17T12:56:36.648Z,18.57
2023-03-17T12:58:44.132Z,18.60
2023-03-17T13:00:58.395Z,18.62
2023-03-17T13:03:32.956Z,18.60
2023-03-17T13:05:37.217Z,18.52
2023-03-17T13:07:48.978Z,18.76
2023-03-17T13:09:53.499Z,18.75
2023-03-17T13:11:55.127Z,18.77
2023-03-17T13:14:14.057Z,18.94
2023-03-17T13:16:47.331Z,18.77
2023-03-17T13:18:50.214Z,18.76
2023-03-17T13:20:57.595Z,18.87
2023-03-17T13:23:11.382Z,18.99
2023-03-17T13:25:27.348Z,18.91
2023-03-17T13:27:31.778Z,19.07
2023-03-17T13:29:33.122Z,19.12
2023-03-17T13:31:37.531Z,19.12
2023-03-17T13:33:44.697Z,19.10
2023-03-17T13:35:46.218Z,19.11
2023-03-17T13:38:03.185Z,19.08
2023-03-17T13:40:14.015Z,19.00
2023-03-17T13:42:26.688Z,19.13
2023-03-17T13:44:32.452Z,19.07
2023-03-17T13:46:37.512Z,19.12
2023-03-17T13:48:40.720Z,18.98
2023-03-17T13:50:42.965Z,18.88
2023-03-17T13:53:01.597Z,18.88
2023-03-17T13:55:18.316Z,18.99
2023-03-17T13:57:35.121Z,18.85
2023-03-17T13:59:55.958Z,18.91
2023-03-17T14:02:01.499Z,19.00
2023-03-17T14:04:05.985Z,18.93
2023-03-17T14:06:08.958Z,19.12
2023-03-17T14:08:24.225Z,18.84
2023-03-17T14:10:28.650Z,19.20
2023-03-17T14:12:42.870Z,19.35
2023-03-17T14:15:19.205Z,19.31
2023-03-17T14:17:24.016Z,19.26
2023-03-17T14:19:28.292Z,19.23
2023-03-17T14:21:33.373Z,19.14
2023-03-17T14:23:35.799Z,19.28
2023-03-17T14:25:39.156Z,19.13
2023-03-17T14:27:41.324Z,19.15
2023-03-17T14:29:43.276Z,19.05
2023-03-17T14:31:52.225Z,18.96
2023-03-17T14:34:01.233Z,18.88
2023-03-17T14:36:07.721Z,18.79
2023-03-17T14:38:19.850Z,18.65
2023-03-17T14:40:24.262Z,18.52
2023-03-17T14:42:28.264Z,18.54
2023-03-17T14:44:37.358Z,18.47
2023-03-17T14:46:41.077Z,18.47
2023-03-17T14:48:46.563Z,18.42
2023-03-17T14:50:54.874Z,18.40
2023-03-17T14:52:59.836Z,18.26
2023-03-17T14:55:01.680Z,18.25
2023-03-17T14:57:07.835Z,18.31
2023-03-17T14:59:34.172Z,18.25
2023-03-17T15:01:44.459Z,18.25
2023-03-17T15:03:58.837Z,18.15
2023-03-17T15:06:23.815Z,18.01
2023-03-17T15:08:42.691Z,18.07
2023-03-17T15:10:44.583Z,18.04
2023-03-17T15:12:48.291Z,18.20
2023-03-17T15:14:53.790Z,18.46
2023-03-17T15:16:55.966Z,18.56
2023-03-17T15:19:05.079Z,18.55
2023-03-17T15:21:22.663Z,18.60
2023-03-17T15:23:28.258Z,18.36
2023-03-17T15:25:38.245Z,18.27
2023-03-17T15:27:39.606Z,18.15
2023-03-17T15:29:41.248Z,18.02
2023-03-17T15:31:42.706Z,18.14
2023-03-17T15:33:44.634Z,17.99
2023-03-17T15:35:46.408Z,17.94
2023-03-17T15:37:47.858Z,17.94
2023-03-17T15:39:50.240Z,17.93
2023-03-17T15:41:51.659Z,17.66
2023-03-17T15:43:53.592Z,17.54
2023-03-17T15:46:01.312Z,17.41
2023-03-17T15:48:02.830Z,17.32
2023-03-17T15:50:29.170Z,17.32
2023-03-17T15:52:30.905Z,17.11
2023-03-17T15:54:32.313Z,17.03
2023-03-17T15:56:34.531Z,16.93
2023-03-17T15:58:36.200Z,16.85
2023-03-17T16:00:38.311Z,16.84
2023-03-17T16:02:39.767Z,16.68
2023-03-17T16:04:41.247Z,16.71
2023-03-17T16:06:42.764Z,16.68
2023-03-17T16:08:45.056Z,16.59
2023-03-17T16:10:46.888Z,16.44
2023-03-17T16:12:49.226Z,16.42
2023-03-17T16:14:51.458Z,16.26
2023-03-17T16:16:52.884Z,16.10
2023-03-17T16:18:54.317Z,15.97
2023-03-17T16:20:56.183Z,16.09
2023-03-17T16:23:03.172Z,16.02
2023-03-17T16:25:27.835Z,15.91
2023-03-17T16:27:29.231Z,15.92
2023-03-17T16:29:30.588Z,15.98
2023-03-17T16:31:32.054Z,15.98
2023-03-17T16:33:39.056Z,15.92
2023-03-17T16:35:40.528Z,15.83
2023-03-17T16:37:42.468Z,15.79
2023-03-17T16:39:43.901Z,15.62
2023-03-17T16:41:47.473Z,15.58
2023-03-17T16:43:53.536Z,15.44
2023-03-17T16:45:59.072Z,15.38
2023-03-17T16:48:04.201Z,15.31
2023-03-17T16:50:17.708Z,15.22
2023-03-17T16:52:19.109Z,15.21
2023-03-17T16:54:20.730Z,15.16
2023-03-17T16:56:24.668Z,15.10
2023-03-17T16:58:34.169Z,14.95
2023-03-17T17:00:35.986Z,14.85
2023-03-17T17:02:37.452Z,14.81
2023-03-17T17:04:41.029Z,14.67
2023-03-17T17:06:42.433Z,14.63
2023-03-17T17:08:45.298Z,14.54
2023-03-17T17:10:46.777Z,14.51
2023-03-17T17:12:49.002Z,14.49
2023-03-17T17:14:50.414Z,14.52
2023-03-17T17:16:51.800Z,14.55
2023-03-17T17:18:53.465Z,14.48
2023-03-17T17:20:56.612Z,14.35
2023-03-17T17:22:59.003Z,14.31
2023-03-17T17:25:00.658Z,14.23
2023-03-17T17:27:02.053Z,14.19
2023-03-17T17:29:03.683Z,14.11
2023-03-17T17:31:05.351Z,14.04
2023-03-17T17:33:06.868Z,14.05
2023-03-17T17:35:09.232Z,14.00
2023-03-17T17:37:11.574Z,14.03
2023-03-17T17:39:13.766Z,14.01
2023-03-17T17:41:16.919Z,13.97
2023-03-17T17:43:18.572Z,13.95
2023-03-17T17:45:20.912Z,13.98
2023-03-17T17:47:22.298Z,13.88
2023-03-17T17:49:24.407Z,13.76
2023-03-17T17:51:26.043Z,13.69
2023-03-17T17:53:27.503Z,13.72
2023-03-17T17:55:29.432Z,13.64
2023-03-17T17:57:30.923Z,13.59
2023-03-17T17:59:32.764Z,13.58
2023-03-17T18:01:34.281Z,13.58
2023-03-17T18:03:36.929Z,13.50
2023-03-17T18:05:38.512Z,13.43
2023-03-17T18:07:40.566Z,13.45
2023-03-17T18:09:41.966Z,13.41
2023-03-17T18:11:43.931Z,13.35
2023-03-17T18:13:45.528Z,13.28
2023-03-17T18:15:46.988Z,13.31
2023-03-17T18:17:49.358Z,13.29
2023-03-17T18:19:55.105Z,13.35
2023-03-17T18:21:57.000Z,13.33
2023-03-17T18:23:59.496Z,13.23
2023-03-17T18:26:02.253Z,13.12
2023-03-17T18:28:04.236Z,13.12
2023-03-17T18:30:07.641Z,13.09
2023-03-17T18:32:10.343Z,13.14
2023-03-17T18:34:21.764Z,13.09
2023-03-17T18:36:24.188Z,13.03
2023-03-17T18:38:26.003Z,13.05
2023-03-17T18:40:27.709Z,13.07
2023-03-17T18:42:29.112Z,13.08
2023-03-17T18:44:30.651Z,13.06
2023-03-17T18:46:32.816Z,13.02
2023-03-17T18:48:36.061Z,12.94
2023-03-17T18:50:37.718Z,12.92
2023-03-17T18:52:41.173Z,12.86
2023-03-17T18:54:42.627Z,12.87
2023-03-17T18:56:44.110Z,12.86
2023-03-17T18:58:45.499Z,12.88
2023-03-17T19:00:49.001Z,12.78
2023-03-17T19:02:50.699Z,12.84
2023-03-17T19:04:52.210Z,12.78
2023-03-17T19:06:53.671Z,12.81
2023-03-17T19:08:56.174Z,12.73
2023-03-17T19:10:57.561Z,12.68
2023-03-17T19:12:59.705Z,12.69
2023-03-17T19:15:01.653Z,12.70
2023-03-17T19:17:03.791Z,12.66
2023-03-17T19:19:05.224Z,12.70
2023-03-17T19:21:09.558Z,12.68
2023-03-17T19:23:11.362Z,12.65
2023-03-17T19:25:13.036Z,12.64
2023-03-17T19:27:14.506Z,12.71
2023-03-17T19:29:16.635Z,12.71
2023-03-17T19:31:18.115Z,12.70
2023-03-17T19:33:19.691Z,12.68
2023-03-17T19:35:22.164Z,12.65
2023-03-17T19:37:23.608Z,12.67
2023-03-17T19:39:25.918Z,12.63
2023-03-17T19:41:27.303Z,12.56
2023-03-17T19:43:39.970Z,12.58
2023-03-17T19:45:42.565Z,12.54
2023-03-17T19:47:44.045Z,12.61
2023-03-17T19:49:45.865Z,12.57
2023-03-17T19:51:47.460Z,12.61
2023-03-17T19:53:48.948Z,12.57
2023-03-17T19:55:50.310Z,12.58
2023-03-17T19:57:51.782Z,12.52
2023-03-17T19:59:53.259Z,12.56
2023-03-17T20:01:54.895Z,12.54
2023-03-17T20:03:56.464Z,12.50
2023-03-17T20:05:57.870Z,12.44
2023-03-17T20:07:59.257Z,12.47
2023-03-17T20:10:01.335Z,12.45
2023-03-17T20:12:02.875Z,12.45
2023-03-17T20:14:04.984Z,12.43
2023-03-17T20:16:08.143Z,12.37
2023-03-17T20:18:10.879Z,12.38
2023-03-17T20:20:12.651Z,12.41
2023-03-17T20:22:14.064Z,12.37
2023-03-17T20:24:15.477Z,12.31
2023-03-17T20:26:17.592Z,12.36
2023-03-17T20:28:19.942Z,12.30
2023-03-17T20:30:22.366Z,12.27
2023-03-17T20:32:23.795Z,12.25
2023-03-17T20:34:25.897Z,12.25
2023-03-17T20:36:27.412Z,12.27
2023-03-17T20:38:29.197Z,12.23
2023-03-17T20:40:31.098Z,12.17
2023-03-17T20:42:32.833Z,12.15
2023-03-17T20:44:34.273Z,12.11
2023-03-17T20:46:36.024Z,12.12
2023-03-17T20:48:37.752Z,12.15
2023-03-17T20:50:39.327Z,12.15
2023-03-17T20:52:41.875Z,12.20
2023-03-17T20:54:43.659Z,12.15
2023-03-17T20:56:45.651Z,12.16
2023-03-17T20:58:48.597Z,12.24
2023-03-17T21:00:51.028Z,12.27
2023-03-17T21:02:53.167Z,12.25
2023-03-17T21:04:54.686Z,12.27
2023-03-17T21:06:56.256Z,12.27
2023-03-17T21:08:57.697Z,12.33
2023-03-17T21:10:59.498Z,12.29
2023-03-17T21:13:01.261Z,12.37
2023-03-17T21:15:03.527Z,12.34
2023-03-17T21:17:05.055Z,12.40
2023-03-17T21:19:09.477Z,12.36
2023-03-17T21:21:11.641Z,12.31
2023-03-17T21:23:13.272Z,12.31
2023-03-17T21:25:14.841Z,12.30
2023-03-17T21:27:17.237Z,12.27
2023-03-17T21:29:18.719Z,12.30
2023-03-17T21:31:20.245Z,12.30
2023-03-17T21:33:21.962Z,12.31
2023-03-17T21:35:24.991Z,12.28
2023-03-17T21:37:26.466Z,12.28
2023-03-17T21:39:29.744Z,12.31
2023-03-17T21:41:34.228Z,12.30
2023-03-17T21:43:35.728Z,12.32
2023-03-17T21:45:37.774Z,12.28
2023-03-17T21:47:41.768Z,12.23
2023-03-17T21:49:43.325Z,12.20
2023-03-17T21:51:46.605Z,12.22
2023-03-17T21:53:48.431Z,12.17
2023-03-17T21:55:50.002Z,12.11
2023-03-17T21:57:51.421Z,12.07
2023-03-17T21:59:53.223Z,12.11
2023-03-17T22:01:54.777Z,12.10
2023-03-17T22:03:56.210Z,12.07
2023-03-17T22:05:58.721Z,12.08
2023-03-17T22:08:00.473Z,12.02
2023-03-17T22:10:01.928Z,12.02
2023-03-17T22:12:04.323Z,12.02
2023-03-17T22:14:05.862Z,12.01
2023-03-17T22:16:08.132Z,12.01
2023-03-17T22:18:09.593Z,11.96
2023-03-17T22:20:11.649Z,11.92
2023-03-17T22:22:13.013Z,11.92
2023-03-17T22:24:14.402Z,11.91
2023-03-17T22:26:18.986Z,11.86
2023-03-17T22:28:20.475Z,11.82
2023-03-17T22:30:21.920Z,11.74
2023-03-17T22:32:23.364Z,11.70
2023-03-17T22:34:25.415Z,11.74
2023-03-17T22:36:27.754Z,11.72
2023-03-17T22:38:29.198Z,11.67
2023-03-17T22:40:30.840Z,11.66
2023-03-17T22:42:33.215Z,11.63
2023-03-17T22:44:34.659Z,11.59
2023-03-17T22:46:40.772Z,11.59
2023-03-17T22:48:42.254Z,11.55
2023-03-17T22:50:43.768Z,11.51
2023-03-17T22:52:45.191Z,11.53
2023-03-17T22:54:46.601Z,11.52
2023-03-17T22:56:48.493Z,11.53
2023-03-17T22:58:49.893Z,11.49
2023-03-17T23:00:51.521Z,11.51
2023-03-17T23:02:52.949Z,11.52
2023-03-17T23:04:54.395Z,11.49
2023-03-17T23:06:56.230Z,11.47
2023-03-17T23:08:57.868Z,11.45
2023-03-17T23:11:00.623Z,11.44
2023-03-17T23:13:01.981Z,11.44
2023-03-17T23:15:04.403Z,11.43
2023-03-17T23:17:07.416Z,11.42
2023-03-17T23:19:09.016Z,11.37
2023-03-17T23:21:10.647Z,11.39
2023-03-17T23:23:12.756Z,11.36
2023-03-17T23:25:14.397Z,11.34
2023-03-17T23:27:15.791Z,11.31
2023-03-17T23:29:17.557Z,11.27
2023-03-17T23:31:22.182Z,11.29
2023-03-17T23:33:25.360Z,11.26
2023-03-17T23:35:27.734Z,11.22
2023-03-17T23:37:29.296Z,11.25
2023-03-17T23:39:30.893Z,11.22
2023-03-17T23:41:32.711Z,11.20
2023-03-17T23:43:34.516Z,11.21
2023-03-17T23:45:36.003Z,11.17
2023-03-17T23:47:38.269Z,11.22
2023-03-17T23:49:39.693Z,11.21
2023-03-17T23:51:41.392Z,11.22
2023-03-17T23:53:42.910Z,11.21
2023-03-17T23:55:45.231Z,11.21
2023-03-17T23:57:46.739Z,11.20
2023-03-17T23:59:48.209Z,11.18
